Terminal Aerodrome Forecast
Issued by NWS Binghamton, NY

Home | Current Version | Previous Version | Text Only | Print | Product List | Glossary On
Versions: 1 2 3 4 5 6 7 8 9 10 11 12 13 14 15 16 17 18 19 20 21 22 23
000
FTUS41 KBGM 262341
TAFSYR
TAF
KSYR 262341Z 2700/2724 12010KT P6SM OVC018
     FM270600 13008KT 4SM -RA BR OVC012 WS020/18035KT
     FM270900 14008KT 4SM -SHRA BR OVC008 WS020/18035KT
     FM271700 23007KT P6SM OVC015=

USA.gov is the U.S. government's official web portal to all federal, state and local government web resources and services.